Time;durP1;ratioP1;P1;durP2;ratioP2;P2;SDS_P1;SDS_P2;PMS_P1;PMS_P2;Temp;Humidity;BMP_temperature;BMP_pressure;BME280_temperature;BME280_humidity;BME280_pressure;Samples;Min_cycle;Max_cycle;Signal;HPM_P1;HPM_P2
2020/12/11 00:00:16;;;;;;;9.75;6.30;;;3.60;79.90;;;;;;4982457;28;20049;-76
2020/12/11 00:02:42;;;;;;;8.95;6.35;;;3.60;79.90;;;;;;4988496;28;20031;-76
2020/12/11 00:05:08;;;;;;;9.70;6.72;;;3.60;79.90;;;;;;4968859;28;20037;-76
2020/12/11 00:07:39;;;;;;;9.40;6.80;;;3.60;79.90;;;;;;4992951;28;20010;-77
2020/12/11 00:10:07;;;;;;;8.57;6.22;;;3.60;79.90;;;;;;4994991;28;20144;-76
2020/12/11 00:12:33;;;;;;;8.05;6.13;;;3.60;79.90;;;;;;4991300;28;20494;-76
2020/12/11 00:14:59;;;;;;;9.10;6.68;;;3.60;79.90;;;;;;4977765;28;20035;-76
2020/12/11 00:17:26;;;;;;;8.43;6.40;;;3.60;79.90;;;;;;4989124;28;20030;-76
2020/12/11 00:19:55;;;;;;;8.70;6.05;;;3.60;79.90;;;;;;4994642;28;20042;-76
2020/12/11 00:22:22;;;;;;;10.60;7.38;;;3.60;79.90;;;;;;4984563;28;20395;-76
2020/12/11 00:24:49;;;;;;;8.75;6.57;;;3.60;79.90;;;;;;4991809;28;20035;-76
2020/12/11 00:27:15;;;;;;;8.52;6.05;;;3.60;79.90;;;;;;4988100;28;20082;-77
2020/12/11 00:29:41;;;;;;;8.88;6.55;;;3.50;79.80;;;;;;4982773;28;20031;-77
2020/12/11 00:32:07;;;;;;;8.82;5.82;;;3.60;79.90;;;;;;4966929;28;20076;-76
2020/12/11 00:34:33;;;;;;;9.25;6.47;;;3.60;79.90;;;;;;4977173;28;20034;-77
2020/12/11 00:36:59;;;;;;;9.93;6.55;;;3.60;79.90;;;;;;4966807;28;20022;-77
2020/12/11 00:39:25;;;;;;;9.80;6.47;;;3.50;79.80;;;;;;4990021;28;20081;-77
2020/12/11 00:41:51;;;;;;;9.38;6.90;;;3.50;79.80;;;;;;4975150;28;20031;-76
2020/12/11 00:44:17;;;;;;;8.68;6.30;;;3.60;79.90;;;;;;4958695;28;20463;-77
2020/12/11 00:46:42;;;;;;;9.50;6.72;;;3.60;79.90;;;;;;4977095;28;20462;-76
2020/12/11 00:49:09;;;;;;;8.38;6.40;;;3.50;79.80;;;;;;4995149;28;20386;-80
2020/12/11 00:51:34;;;;;;;9.40;6.88;;;3.50;79.80;;;;;;4974351;28;20118;-77
2020/12/11 00:54:01;;;;;;;9.43;7.05;;;3.50;79.90;;;;;;4993436;28;20113;-77
2020/12/11 00:56:27;;;;;;;10.23;7.18;;;3.50;80.50;;;;;;4975372;28;20089;-77
2020/12/11 00:58:53;;;;;;;9.25;6.80;;;3.50;79.90;;;;;;4990299;28;20039;-76
2020/12/11 01:01:18;;;;;;;8.93;6.18;;;3.50;79.90;;;;;;4950794;28;20038;-76
2020/12/11 01:03:45;;;;;;;9.38;6.47;;;3.50;79.80;;;;;;4958691;28;20034;-76
2020/12/11 01:06:10;;;;;;;9.02;6.60;;;3.50;79.80;;;;;;4974549;28;20018;-77
2020/12/11 01:08:36;;;;;;;7.95;5.75;;;3.50;79.90;;;;;;4976824;28;20064;-76
2020/12/11 01:11:02;;;;;;;8.48;6.50;;;3.50;79.80;;;;;;4980903;28;20037;-76
2020/12/11 01:13:28;;;;;;;9.70;6.82;;;3.50;79.80;;;;;;4974136;28;20031;-76
2020/12/11 01:15:54;;;;;;;8.98;6.43;;;3.50;79.80;;;;;;4981768;28;20485;-76
2020/12/11 01:18:19;;;;;;;9.60;6.75;;;3.50;79.80;;;;;;4973724;28;20110;-76
2020/12/11 01:20:45;;;;;;;9.90;6.57;;;3.50;79.90;;;;;;4958486;28;20070;-76
2020/12/11 01:23:11;;;;;;;8.65;6.10;;;3.50;79.80;;;;;;4985557;28;20038;-77
2020/12/11 01:25:37;;;;;;;9.95;7.13;;;3.50;79.90;;;;;;4993780;28;20398;-77
2020/12/11 01:28:04;;;;;;;8.40;6.32;;;3.50;79.90;;;;;;4985345;28;20030;-78
2020/12/11 01:30:30;;;;;;;9.55;6.43;;;3.50;79.90;;;;;;4993444;28;20113;-78
2020/12/11 01:32:56;;;;;;;10.88;7.13;;;3.50;79.90;;;;;;4993022;28;20053;-76
2020/12/11 01:35:22;;;;;;;9.23;6.68;;;3.50;79.90;;;;;;4989719;28;20054;-77
2020/12/11 01:37:48;;;;;;;9.23;6.50;;;3.50;79.90;;;;;;4989928;28;20390;-76
2020/12/11 01:40:13;;;;;;;9.35;6.80;;;3.50;79.90;;;;;;4977668;28;20031;-77
2020/12/11 01:42:40;;;;;;;8.73;6.45;;;3.50;79.90;;;;;;4987012;28;20126;-76
2020/12/11 01:45:06;;;;;;;9.18;6.40;;;3.50;79.90;;;;;;4959072;28;20101;-77
2020/12/11 01:47:39;;;;;;;8.55;6.10;;;3.50;79.90;;;;;;4992710;28;20030;-77
2020/12/11 01:50:07;;;;;;;8.75;6.53;;;3.50;79.90;;;;;;4992287;28;20441;-77
2020/12/11 01:52:32;;;;;;;9.52;6.43;;;3.50;79.90;;;;;;4992200;28;20027;-78
2020/12/11 01:54:58;;;;;;;8.68;6.13;;;3.50;79.90;;;;;;4992898;28;20037;-76
2020/12/11 01:57:35;;;;;;;9.40;6.75;;;3.50;79.90;;;;;;4989628;28;20030;-76
2020/12/11 02:00:05;;;;;;;9.38;6.78;;;3.50;79.90;;;;;;4973508;28;20174;-76
2020/12/11 02:02:36;;;;;;;9.32;6.53;;;3.50;79.90;;;;;;4974690;28;20038;-79
2020/12/11 02:05:05;;;;;;;8.88;6.85;;;3.50;79.90;;;;;;4957506;28;20026;-77
2020/12/11 02:07:35;;;;;;;10.68;7.57;;;3.50;79.90;;;;;;4984541;28;20043;-80
2020/12/11 02:10:01;;;;;;;9.15;6.60;;;3.50;79.90;;;;;;4973399;28;20051;-77
2020/12/11 02:12:26;;;;;;;9.45;6.80;;;3.50;79.90;;;;;;4989563;28;20590;-77
2020/12/11 02:14:52;;;;;;;9.52;6.82;;;3.50;79.90;;;;;;4983729;28;20026;-77
2020/12/11 02:17:18;;;;;;;9.45;6.35;;;3.50;79.90;;;;;;4987307;28;20027;-77
2020/12/11 02:19:43;;;;;;;9.35;6.93;;;3.50;79.90;;;;;;4988364;28;20034;-78
2020/12/11 02:22:09;;;;;;;10.10;7.30;;;3.50;79.90;;;;;;4990516;28;20070;-77
2020/12/11 02:24:35;;;;;;;9.55;6.72;;;3.50;79.90;;;;;;4982014;28;20507;-77
2020/12/11 02:27:03;;;;;;;9.23;6.35;;;3.50;79.90;;;;;;4983010;28;20081;-77
2020/12/11 02:29:29;;;;;;;9.75;7.15;;;3.50;79.90;;;;;;4988691;28;20081;-77
2020/12/11 02:31:55;;;;;;;9.90;7.03;;;3.50;79.90;;;;;;4963997;28;20035;-77
2020/12/11 02:34:22;;;;;;;10.43;7.28;;;3.50;79.90;;;;;;4974144;28;20026;-77
2020/12/11 02:36:49;;;;;;;10.48;7.00;;;3.50;79.90;;;;;;4992152;28;20502;-76
2020/12/11 02:39:15;;;;;;;8.85;6.50;;;3.40;79.80;;;;;;4988336;28;20023;-77
2020/12/11 02:41:41;;;;;;;10.40;6.25;;;3.40;79.90;;;;;;4988714;28;20385;-79
2020/12/11 02:44:07;;;;;;;9.05;6.28;;;3.40;79.80;;;;;;4991826;28;20023;-77
2020/12/11 02:46:33;;;;;;;9.52;6.97;;;3.40;79.80;;;;;;4992068;28;20030;-80
2020/12/11 02:48:58;;;;;;;9.65;7.05;;;3.50;79.90;;;;;;4990392;28;20487;-80
2020/12/11 02:51:24;;;;;;;10.93;7.03;;;3.40;79.80;;;;;;4989668;28;20034;-77
2020/12/11 02:53:50;;;;;;;10.13;7.20;;;3.40;79.80;;;;;;4991970;28;20034;-77
2020/12/11 02:56:20;;;;;;;9.73;6.80;;;3.40;79.80;;;;;;4991732;28;20080;-77
2020/12/11 02:58:46;;;;;;;9.45;6.45;;;3.40;79.80;;;;;;4983834;28;20039;-77
2020/12/11 03:01:12;;;;;;;10.43;7.05;;;3.40;79.80;;;;;;4970589;28;20104;-77
2020/12/11 03:03:38;;;;;;;9.50;6.95;;;3.40;79.80;;;;;;4993441;28;20063;-77
2020/12/11 03:06:04;;;;;;;9.20;6.82;;;3.40;79.80;;;;;;4991641;28;20018;-76
2020/12/11 03:08:30;;;;;;;9.55;7.18;;;3.40;79.80;;;;;;4993188;28;20062;-77
2020/12/11 03:10:56;;;;;;;9.90;6.63;;;3.40;79.80;;;;;;4988519;28;20042;-77
2020/12/11 03:13:22;;;;;;;9.82;6.88;;;3.40;79.90;;;;;;4956531;28;20126;-77
2020/12/11 03:15:47;;;;;;;10.35;7.25;;;3.40;79.90;;;;;;4973153;28;20026;-77
2020/12/11 03:18:13;;;;;;;8.85;6.28;;;3.40;79.80;;;;;;5008294;28;20074;-79
2020/12/11 03:20:39;;;;;;;10.38;6.97;;;3.40;79.90;;;;;;4965974;28;20038;-77
2020/12/11 03:23:04;;;;;;;9.27;6.70;;;3.40;79.90;;;;;;4974244;28;20035;-76
2020/12/11 03:25:30;;;;;;;9.80;6.72;;;3.40;79.80;;;;;;4988644;28;20035;-79
2020/12/11 03:27:56;;;;;;;9.93;7.28;;;3.40;79.90;;;;;;4957505;28;20364;-77
2020/12/11 03:30:22;;;;;;;9.95;7.07;;;3.40;79.80;;;;;;4974505;28;20039;-77
2020/12/11 03:32:48;;;;;;;10.55;7.05;;;3.40;79.80;;;;;;4972925;28;20037;-77
2020/12/11 03:35:13;;;;;;;8.95;6.47;;;3.30;79.80;;;;;;4999125;28;20501;-78
2020/12/11 03:37:39;;;;;;;8.82;6.13;;;3.30;79.80;;;;;;4966793;28;20062;-77
2020/12/11 03:40:05;;;;;;;10.52;7.30;;;3.30;79.80;;;;;;4978482;28;20026;-76
2020/12/11 03:42:31;;;;;;;9.55;6.82;;;3.30;79.80;;;;;;4975550;28;20255;-76
2020/12/11 03:44:57;;;;;;;9.02;5.80;;;3.30;79.80;;;;;;4983303;28;20030;-77
2020/12/11 03:47:23;;;;;;;9.50;6.28;;;3.30;79.80;;;;;;4991626;28;20114;-77
2020/12/11 03:49:49;;;;;;;8.77;6.47;;;3.30;79.80;;;;;;4984824;28;20213;-76
2020/12/11 03:52:15;;;;;;;9.73;7.05;;;3.30;79.80;;;;;;4978429;28;20547;-77
2020/12/11 03:54:41;;;;;;;9.77;6.28;;;3.20;79.80;;;;;;4984756;28;20398;-79
2020/12/11 03:57:07;;;;;;;9.00;6.57;;;3.30;79.80;;;;;;4985351;28;20027;-76
2020/12/11 03:59:32;;;;;;;9.55;6.88;;;3.30;79.80;;;;;;4991953;28;20386;-76
2020/12/11 04:01:58;;;;;;;9.52;7.00;;;3.30;79.80;;;;;;4985568;28;20482;-77
2020/12/11 04:04:24;;;;;;;9.63;6.70;;;3.30;79.80;;;;;;4976950;28;20050;-77
2020/12/11 04:06:50;;;;;;;9.13;6.30;;;3.20;79.80;;;;;;5001463;28;20379;-76
2020/12/11 04:09:15;;;;;;;9.27;6.70;;;3.20;79.80;;;;;;4959353;28;20061;-76
2020/12/11 04:11:41;;;;;;;10.60;7.15;;;3.20;79.80;;;;;;4981201;28;20725;-76
2020/12/11 04:14:07;;;;;;;10.48;7.00;;;3.20;79.80;;;;;;4970826;28;20030;-76
2020/12/11 04:16:36;;;;;;;9.10;6.57;;;3.20;79.80;;;;;;4988817;28;20033;-76
2020/12/11 04:19:02;;;;;;;9.85;6.63;;;3.20;79.80;;;;;;4975441;28;20033;-77
2020/12/11 04:21:28;;;;;;;9.90;6.82;;;3.20;79.80;;;;;;4990901;28;20117;-76
2020/12/11 04:23:54;;;;;;;9.48;6.78;;;3.20;79.80;;;;;;4994708;28;20122;-76
2020/12/11 04:26:19;;;;;;;9.85;6.93;;;3.20;79.80;;;;;;4992336;28;20034;-77
2020/12/11 04:28:45;;;;;;;10.18;7.10;;;3.20;79.80;;;;;;4976349;28;20395;-76
2020/12/11 04:31:11;;;;;;;9.27;6.88;;;3.20;79.80;;;;;;4975397;28;20467;-76
2020/12/11 04:33:37;;;;;;;9.07;6.60;;;3.20;79.80;;;;;;4958864;28;20057;-79
2020/12/11 04:36:03;;;;;;;9.07;6.43;;;3.20;79.80;;;;;;4968632;28;20058;-76
2020/12/11 04:38:29;;;;;;;10.05;6.90;;;3.20;79.80;;;;;;4994212;28;20069;-75
2020/12/11 04:40:59;;;;;;;9.38;6.63;;;3.20;79.80;;;;;;4990788;28;20042;-77
2020/12/11 04:43:25;;;;;;;9.32;6.47;;;3.20;79.80;;;;;;4961871;28;20033;-76
2020/12/11 04:45:52;;;;;;;10.13;6.75;;;3.20;79.80;;;;;;4989523;28;20546;-76
2020/12/11 04:48:18;;;;;;;9.85;6.90;;;3.20;79.80;;;;;;4989754;28;20049;-76
2020/12/11 04:50:45;;;;;;;10.65;7.20;;;3.10;79.70;;;;;;4976318;28;20039;-77
2020/12/11 04:53:16;;;;;;;10.20;6.72;;;3.10;79.70;;;;;;4975466;28;20105;-78
2020/12/11 04:55:46;;;;;;;9.70;6.75;;;3.10;79.80;;;;;;4994242;28;20029;-78
2020/12/11 04:58:16;;;;;;;10.70;7.15;;;3.20;79.80;;;;;;4974676;28;20026;-76
2020/12/11 05:00:43;;;;;;;9.60;6.47;;;3.10;79.80;;;;;;4984334;28;20134;-77
2020/12/11 05:03:15;;;;;;;10.95;7.70;;;3.10;79.70;;;;;;4975700;28;20030;-76
2020/12/11 05:05:40;;;;;;;9.98;7.35;;;3.10;79.70;;;;;;4967753;28;20041;-77
2020/12/11 05:08:20;;;;;;;9.77;6.93;;;3.10;79.70;;;;;;4989652;28;20031;-76
2020/12/11 05:10:46;;;;;;;11.15;7.55;;;3.10;79.80;;;;;;4987105;28;20034;-76
2020/12/11 05:13:25;;;;;;;10.20;6.82;;;3.10;79.70;;;;;;4992355;28;20042;-77
2020/12/11 05:16:11;;;;;;;9.18;6.72;;;3.10;79.80;;;;;;4976210;28;20030;-77
2020/12/11 05:18:38;;;;;;;9.77;7.00;;;3.10;79.80;;;;;;4973839;28;20074;-76
2020/12/11 05:21:21;;;;;;;10.65;7.55;;;3.10;79.70;;;;;;4967421;28;20050;-76
2020/12/11 05:24:01;;;;;;;10.13;6.75;;;3.10;79.80;;;;;;4992234;28;20030;-78
2020/12/11 05:26:29;;;;;;;10.00;7.28;;;3.10;79.80;;;;;;4987576;28;20466;-77
2020/12/11 05:28:55;;;;;;;11.23;7.78;;;3.10;79.90;;;;;;4975216;28;20463;-77
2020/12/11 05:31:21;;;;;;;9.48;6.55;;;3.10;79.80;;;;;;5006612;28;20022;-77
2020/12/11 05:34:06;;;;;;;9.45;6.90;;;3.10;79.80;;;;;;4992310;28;20027;-76
2020/12/11 05:36:53;;;;;;;9.70;7.10;;;3.10;79.80;;;;;;4995521;28;20031;-76
2020/12/11 05:39:39;;;;;;;10.18;7.45;;;3.10;79.80;;;;;;4957955;28;20039;-77
2020/12/11 05:42:11;;;;;;;10.60;7.25;;;3.10;79.80;;;;;;4987526;28;20093;-76
2020/12/11 05:44:36;;;;;;;10.80;7.03;;;3.10;79.80;;;;;;4992130;28;20112;-77
2020/12/11 05:47:24;;;;;;;10.90;7.15;;;3.10;79.80;;;;;;5001780;28;20062;-76
2020/12/11 05:49:50;;;;;;;10.23;7.20;;;3.10;79.90;;;;;;5003970;28;20038;-76
2020/12/11 05:52:18;;;;;;;11.18;8.18;;;3.10;79.80;;;;;;4973979;28;20031;-81
2020/12/11 05:54:48;;;;;;;9.80;6.85;;;3.10;79.80;;;;;;4989379;28;20042;-77
2020/12/11 05:57:16;;;;;;;10.57;7.30;;;3.10;79.80;;;;;;4964990;28;20042;-77
2020/12/11 05:59:43;;;;;;;10.55;7.55;;;3.10;79.80;;;;;;4987262;28;20066;-80
2020/12/11 06:02:11;;;;;;;8.68;6.72;;;3.10;79.80;;;;;;4971840;28;20062;-76
2020/12/11 06:04:37;;;;;;;10.80;7.63;;;3.20;79.90;;;;;;4988899;28;20470;-77
2020/12/11 06:07:13;;;;;;;9.98;7.28;;;3.20;79.90;;;;;;4977763;28;20027;-76
2020/12/11 06:09:41;;;;;;;11.02;7.68;;;3.20;80.00;;;;;;4956219;28;629872;-76
2020/12/11 06:12:11;;;;;;;9.93;7.07;;;3.20;79.90;;;;;;4988800;28;20058;-77
2020/12/11 06:15:06;;;;;;;9.95;7.35;;;3.20;79.90;;;;;;4976194;28;20125;-76
2020/12/11 06:17:36;;;;;;;9.82;7.05;;;3.20;79.90;;;;;;4974247;28;20047;-77
2020/12/11 06:20:04;;;;;;;10.63;6.75;;;3.20;79.80;;;;;;4990737;28;20034;-76
2020/12/11 06:22:29;;;;;;;9.80;7.07;;;3.20;79.80;;;;;;4992686;28;20026;-77
2020/12/11 06:24:55;;;;;;;10.80;7.55;;;3.20;79.80;;;;;;4961152;28;20533;-76
2020/12/11 06:27:31;;;;;;;11.30;8.13;;;3.20;79.90;;;;;;4985412;28;20390;-76
2020/12/11 06:29:57;;;;;;;11.35;7.85;;;3.20;79.90;;;;;;4973446;28;20050;-77
2020/12/11 06:32:33;;;;;;;10.30;7.43;;;3.20;79.90;;;;;;4991917;28;20031;-77
2020/12/11 06:35:26;;;;;;;11.27;7.38;;;3.20;79.90;;;;;;4978888;28;20026;-76
2020/12/11 06:37:52;;;;;;;10.38;7.70;;;3.20;80.00;;;;;;4971539;28;20065;-77
2020/12/11 06:40:48;;;;;;;10.73;7.00;;;3.30;79.90;;;;;;5002871;28;20037;-80
2020/12/11 06:43:39;;;;;;;10.00;7.18;;;3.20;80.00;;;;;;4972999;28;20045;-78
2020/12/11 06:46:15;;;;;;;10.32;7.18;;;3.30;80.00;;;;;;4982686;28;20048;-76
2020/12/11 06:49:21;;;;;;;8.57;5.97;;;3.30;79.90;;;;;;4991915;28;20462;-77
2020/12/11 06:51:47;;;;;;;8.95;6.38;;;3.30;80.00;;;;;;4976435;28;20033;-77
2020/12/11 06:54:33;;;;;;;10.20;7.47;;;3.30;79.80;;;;;;4988534;28;20389;-76
2020/12/11 06:57:00;;;;;;;8.60;6.32;;;3.30;80.00;;;;;;4963183;28;20390;-77
2020/12/11 06:59:33;;;;;;;10.95;7.50;;;3.30;79.90;;;;;;4972352;28;20085;-77
2020/12/11 07:02:01;;;;;;;10.90;7.20;;;3.30;80.00;;;;;;4974510;28;20035;-76
2020/12/11 07:04:37;;;;;;;9.93;7.07;;;3.30;80.00;;;;;;4974779;28;20030;-76
2020/12/11 07:07:03;;;;;;;9.88;7.30;;;3.30;80.00;;;;;;4974337;28;20026;-77
2020/12/11 07:09:29;;;;;;;10.60;7.55;;;3.30;80.00;;;;;;4973396;28;20058;-76
2020/12/11 07:11:57;;;;;;;9.85;6.82;;;3.30;80.00;;;;;;4989513;28;20034;-76
2020/12/11 07:14:28;;;;;;;10.05;6.70;;;3.30;80.00;;;;;;4988026;28;20073;-77
2020/12/11 07:16:54;;;;;;;11.13;7.22;;;3.40;80.10;;;;;;4954825;28;20371;-77
2020/12/11 07:19:20;;;;;;;10.48;7.78;;;3.40;80.00;;;;;;4962781;28;20037;-77
2020/12/11 07:21:47;;;;;;;9.68;6.70;;;3.40;80.00;;;;;;4996823;28;20042;-77
2020/12/11 07:24:13;;;;;;;9.25;7.00;;;3.40;80.00;;;;;;4992075;28;20367;-77
2020/12/11 07:26:39;;;;;;;9.27;6.38;;;3.40;80.00;;;;;;4972001;28;20491;-76
2020/12/11 07:29:11;;;;;;;9.43;6.70;;;3.40;80.00;;;;;;4988284;28;20120;-76
2020/12/11 07:31:41;;;;;;;10.00;6.60;;;3.40;80.00;;;;;;4982932;28;20035;-76
2020/12/11 07:34:18;;;;;;;9.85;6.90;;;3.40;80.00;;;;;;4989806;28;20113;-76
2020/12/11 07:36:45;;;;;;;10.45;7.13;;;3.50;80.10;;;;;;4981350;28;20379;-77
2020/12/11 07:39:18;;;;;;;9.20;6.85;;;3.40;80.00;;;;;;4975586;28;20038;-76
2020/12/11 07:41:45;;;;;;;9.25;6.07;;;3.40;80.00;;;;;;4983977;28;20050;-77
2020/12/11 07:44:24;;;;;;;11.77;7.72;;;3.50;80.10;;;;;;4992867;28;20034;-77
2020/12/11 07:46:51;;;;;;;9.10;6.10;;;3.40;80.00;;;;;;4994675;28;20593;-76
2020/12/11 07:49:17;;;;;;;10.73;7.47;;;3.40;80.00;;;;;;4977592;28;20487;-76
2020/12/11 07:51:50;;;;;;;9.70;6.85;;;3.50;80.00;;;;;;4993697;28;20168;-77
2020/12/11 07:54:17;;;;;;;10.00;6.85;;;3.50;80.10;;;;;;4994825;28;20022;-77
2020/12/11 07:56:43;;;;;;;10.35;6.78;;;3.50;80.00;;;;;;4970964;28;20027;-82
2020/12/11 07:59:13;;;;;;;9.70;6.95;;;3.50;80.00;;;;;;4991828;28;20072;-79
2020/12/11 08:01:40;;;;;;;9.43;6.65;;;3.60;80.10;;;;;;4975932;28;20058;-77
2020/12/11 08:04:06;;;;;;;10.32;7.22;;;3.50;80.00;;;;;;5000092;28;20072;-77
2020/12/11 08:06:32;;;;;;;9.57;6.63;;;3.60;80.10;;;;;;4994854;28;20491;-77
2020/12/11 08:08:58;;;;;;;9.82;6.47;;;3.50;80.00;;;;;;4994792;28;20446;-78
2020/12/11 08:11:25;;;;;;;10.05;7.03;;;3.50;80.00;;;;;;4983070;28;20090;-77
2020/12/11 08:14:11;;;;;;;10.57;7.80;;;3.50;80.00;;;;;;4976934;28;20433;-78
2020/12/11 08:16:38;;;;;;;9.55;6.57;;;3.60;80.10;;;;;;4967234;28;20034;-78
2020/12/11 08:19:09;;;;;;;9.88;6.85;;;3.60;80.00;;;;;;4994593;28;20101;-78
2020/12/11 08:21:34;;;;;;;8.68;6.60;;;3.60;80.10;;;;;;4995908;28;20534;-77
2020/12/11 08:24:00;;;;;;;9.88;7.07;;;3.60;80.00;;;;;;5011086;28;20109;-77
2020/12/11 08:26:36;;;;;;;9.52;6.97;;;3.60;80.00;;;;;;4996236;28;20049;-77
2020/12/11 08:29:07;;;;;;;8.88;6.35;;;3.60;80.00;;;;;;4994138;28;20038;-77
2020/12/11 08:31:42;;;;;;;9.80;6.47;;;3.60;80.00;;;;;;4990445;28;20023;-77
2020/12/11 08:34:12;;;;;;;10.38;7.05;;;3.60;80.00;;;;;;4996037;28;20031;-79
2020/12/11 08:36:46;;;;;;;9.98;6.75;;;3.60;80.00;;;;;;4995110;28;20023;-77
2020/12/11 08:39:11;;;;;;;10.18;6.00;;;3.70;80.00;;;;;;4994805;28;20034;-77
2020/12/11 08:41:44;;;;;;;8.70;6.40;;;3.70;80.00;;;;;;4994086;28;20524;-78
2020/12/11 08:44:25;;;;;;;9.73;6.72;;;3.70;80.10;;;;;;4994379;28;20038;-78
2020/12/11 08:47:27;;;;;;;8.85;6.47;;;3.70;80.10;;;;;;4970429;28;20077;-77
2020/12/11 08:49:41;;;;;;;8.50;6.07;;;3.70;80.00;;;;;;4975529;28;20055;-77
2020/12/11 08:52:08;;;;;;;9.73;6.85;;;3.70;80.00;;;;;;4977229;28;20027;-77
2020/12/11 08:54:34;;;;;;;7.82;5.93;;;3.70;80.00;;;;;;4965520;28;20022;-77
2020/12/11 08:57:00;;;;;;;10.27;6.50;;;3.70;80.00;;;;;;4983158;28;20030;-77
2020/12/11 08:59:25;;;;;;;9.05;6.47;;;3.70;80.00;;;;;;4989805;28;20387;-78
2020/12/11 09:01:51;;;;;;;10.48;7.32;;;3.80;80.10;;;;;;4977420;28;20147;-81
2020/12/11 09:04:17;;;;;;;9.35;6.75;;;3.80;80.10;;;;;;4954840;28;20383;-78
2020/12/11 09:06:46;;;;;;;9.38;6.55;;;3.80;80.10;;;;;;4967199;28;20489;-77
2020/12/11 09:09:12;;;;;;;9.77;6.53;;;3.80;80.10;;;;;;4989924;28;20050;-77
2020/12/11 09:11:37;;;;;;;8.95;6.40;;;3.80;80.10;;;;;;4988364;28;20023;-78
2020/12/11 09:14:03;;;;;;;9.35;6.93;;;3.80;80.10;;;;;;4957963;28;20479;-78
2020/12/11 09:16:29;;;;;;;9.02;6.53;;;3.80;80.10;;;;;;4979452;28;20387;-77
2020/12/11 09:18:55;;;;;;;10.35;7.05;;;3.80;80.10;;;;;;4947631;28;20082;-78
2020/12/11 09:21:20;;;;;;;9.82;7.03;;;3.80;80.10;;;;;;4989438;28;20042;-77
2020/12/11 09:23:49;;;;;;;9.75;6.75;;;3.90;80.10;;;;;;4990109;28;20435;-78
2020/12/11 09:26:15;;;;;;;9.23;6.68;;;3.80;80.10;;;;;;4985529;28;20467;-78
2020/12/11 09:28:46;;;;;;;9.20;6.53;;;3.90;80.10;;;;;;4993634;28;20034;-77
2020/12/11 09:31:11;;;;;;;8.90;6.47;;;3.90;80.10;;;;;;4993642;28;20085;-78
2020/12/11 09:33:40;;;;;;;8.98;6.53;;;3.90;80.10;;;;;;4990120;28;20031;-77
2020/12/11 09:36:06;;;;;;;9.77;6.70;;;3.90;80.10;;;;;;4966751;28;20457;-77
2020/12/11 09:38:32;;;;;;;9.57;6.55;;;3.90;80.10;;;;;;4993392;28;20117;-77
2020/12/11 09:41:03;;;;;;;10.02;7.60;;;3.90;80.10;;;;;;4973668;28;20453;-77
2020/12/11 09:54:10;;;;;;;8.75;6.15;;;4.00;80.20;;;;;;4991390;28;20061;-74
2020/12/11 09:56:26;;;;;;;8.85;6.03;;;4.00;80.10;;;;;;4984473;28;20066;-75
2020/12/11 09:58:57;;;;;;;8.35;6.13;;;4.00;80.20;;;;;;4969791;28;20735;-79
2020/12/11 10:01:31;;;;;;;7.90;5.93;;;4.00;80.20;;;;;;4976764;28;20470;-75
2020/12/11 10:03:57;;;;;;;10.17;6.97;;;4.00;80.10;;;;;;4992680;28;20122;-76
2020/12/11 10:06:26;;;;;;;8.65;5.63;;;4.00;80.10;;;;;;5008941;28;20052;-76
2020/12/11 10:08:53;;;;;;;9.52;6.25;;;4.10;80.20;;;;;;4989673;28;20406;-76
2020/12/11 10:11:20;;;;;;;8.65;6.15;;;4.10;80.20;;;;;;4991728;28;20035;-77
2020/12/11 10:13:52;;;;;;;8.55;6.10;;;4.10;80.20;;;;;;4989230;28;20023;-75
2020/12/11 10:16:18;;;;;;;8.40;6.03;;;4.10;80.20;;;;;;4972199;28;20551;-78
2020/12/11 10:18:44;;;;;;;7.90;5.68;;;4.10;80.20;;;;;;4954961;28;20121;-75
2020/12/11 10:21:11;;;;;;;7.75;5.72;;;4.10;80.10;;;;;;4987076;28;20062;-75
2020/12/11 10:23:38;;;;;;;8.95;6.63;;;4.20;80.20;;;;;;4988773;28;20026;-76
2020/12/11 10:26:04;;;;;;;10.73;6.45;;;4.20;80.20;;;;;;4979765;28;20026;-76
2020/12/11 10:28:31;;;;;;;8.48;6.47;;;4.20;80.20;;;;;;4988851;28;20023;-75
2020/12/11 10:30:57;;;;;;;8.18;5.80;;;4.20;80.20;;;;;;4974182;28;20031;-76
2020/12/11 10:33:23;;;;;;;8.50;5.97;;;4.20;80.20;;;;;;4973513;28;20422;-77
2020/12/11 10:35:48;;;;;;;9.27;6.45;;;4.20;80.20;;;;;;4987878;28;20047;-76
2020/12/11 10:38:14;;;;;;;9.02;6.60;;;4.30;80.20;;;;;;5004704;28;20034;-76
2020/12/11 10:40:41;;;;;;;9.88;6.35;;;4.30;80.20;;;;;;4989605;28;20433;-76
2020/12/11 10:43:06;;;;;;;8.13;6.13;;;4.30;80.20;;;;;;4956789;28;20478;-76
2020/12/11 10:45:32;;;;;;;8.75;6.07;;;4.30;80.20;;;;;;4941193;28;20046;-76
2020/12/11 10:47:58;;;;;;;8.70;6.07;;;4.30;80.20;;;;;;4960454;28;20030;-76
2020/12/11 10:50:23;;;;;;;7.82;5.88;;;4.30;80.10;;;;;;4975584;28;20049;-78
2020/12/11 10:52:49;;;;;;;8.52;6.40;;;4.30;80.10;;;;;;4973235;28;20439;-75
2020/12/11 10:55:15;;;;;;;8.27;6.18;;;4.40;80.20;;;;;;4972978;28;20031;-76
2020/12/11 10:57:41;;;;;;;9.13;6.43;;;4.40;80.20;;;;;;4978993;28;20027;-79
2020/12/11 11:00:07;;;;;;;8.73;5.93;;;4.40;80.20;;;;;;4993503;28;20031;-76
2020/12/11 11:02:32;;;;;;;8.90;6.40;;;4.40;80.20;;;;;;4972666;28;20042;-75
2020/12/11 11:04:58;;;;;;;9.25;6.78;;;4.40;80.20;;;;;;4980473;28;20580;-75
2020/12/11 11:07:27;;;;;;;9.45;6.28;;;4.40;80.20;;;;;;4965539;28;20235;-76
2020/12/11 11:10:13;;;;;;;8.65;6.25;;;4.50;80.20;;;;;;4998852;28;20058;-75
2020/12/11 11:13:00;;;;;;;8.55;6.15;;;4.50;80.20;;;;;;4964706;28;20029;-76
2020/12/11 11:15:41;;;;;;;9.32;6.20;;;4.50;80.20;;;;;;4970781;28;20109;-77
2020/12/11 11:18:26;;;;;;;8.65;6.10;;;4.50;80.10;;;;;;4968939;28;20041;-75
2020/12/11 11:21:24;;;;;;;7.75;5.70;;;4.50;80.10;;;;;;4987599;28;20035;-75
2020/12/11 11:26:43;;;;;;;8.60;6.00;;;4.50;80.10;;;;;;4991389;28;20038;-74
2020/12/11 11:29:09;;;;;;;7.53;5.55;;;4.60;80.20;;;;;;4986122;28;20084;-74
2020/12/11 11:31:35;;;;;;;8.18;5.78;;;4.60;80.20;;;;;;4984640;28;20035;-74
2020/12/11 11:34:01;;;;;;;8.65;6.50;;;4.60;80.20;;;;;;4989741;28;20402;-74
2020/12/11 11:36:29;;;;;;;8.10;5.97;;;4.60;80.20;;;;;;4983687;28;20039;-76
2020/12/11 11:38:55;;;;;;;8.27;5.78;;;4.60;80.20;;;;;;4991533;28;20089;-75
2020/12/11 11:41:53;;;;;;;8.68;5.82;;;4.70;80.30;;;;;;5003180;28;20038;-77
2020/12/11 11:44:37;;;;;;;8.85;6.45;;;4.70;80.30;;;;;;4972951;28;20031;-76
2020/12/11 11:47:03;;;;;;;8.52;5.70;;;4.70;80.20;;;;;;4996240;28;20471;-75
2020/12/11 11:49:35;;;;;;;7.60;5.50;;;4.70;80.20;;;;;;4991582;28;20059;-77
2020/12/11 11:54:34;;;;;;;8.23;5.78;;;4.70;80.20;;;;;;4987930;28;20062;-77
2020/12/11 11:57:00;;;;;;;7.18;5.30;;;4.80;80.30;;;;;;4989708;28;20089;-79
2020/12/11 11:59:26;;;;;;;6.88;5.00;;;4.80;80.30;;;;;;4989426;28;20042;-76
2020/12/11 12:01:55;;;;;;;7.95;5.82;;;4.80;80.30;;;;;;4964767;28;20027;-76
2020/12/11 12:04:21;;;;;;;9.23;5.53;;;4.80;80.30;;;;;;4968143;28;20141;-76
2020/12/11 12:06:47;;;;;;;8.50;5.88;;;4.80;80.30;;;;;;4980185;28;20034;-76
2020/12/11 12:09:13;;;;;;;8.10;5.35;;;4.80;80.30;;;;;;4989743;28;20059;-76
2020/12/11 12:11:39;;;;;;;8.05;5.53;;;4.90;80.30;;;;;;4992481;28;20038;-76
2020/12/11 12:14:05;;;;;;;8.15;5.78;;;4.90;80.30;;;;;;4995483;28;20037;-78
2020/12/11 12:16:32;;;;;;;7.57;5.57;;;4.90;80.30;;;;;;4993696;28;20026;-75
2020/12/11 12:18:59;;;;;;;7.30;5.38;;;4.90;80.30;;;;;;4993158;28;20056;-76
2020/12/11 12:22:23;;;;;;;7.60;5.53;;;4.90;80.30;;;;;;4985009;28;20507;-76
2020/12/11 12:29:36;;;;;;;7.28;5.45;;;5.00;80.30;;;;;;4990810;28;20046;-76
2020/12/11 12:32:12;;;;;;;8.07;5.63;;;5.00;80.20;;;;;;4991721;28;20034;-82
2020/12/11 12:37:31;;;;;;;6.80;5.10;;;5.00;80.20;;;;;;4986067;28;20044;-77
2020/12/11 12:45:07;;;;;;;7.70;5.50;;;5.10;80.20;;;;;;4971097;28;20026;-77
2020/12/11 12:47:33;;;;;;;7.82;5.50;;;5.10;80.30;;;;;;4976596;28;20039;-77
2020/12/11 12:50:01;;;;;;;7.18;5.30;;;5.10;80.30;;;;;;4974285;28;20084;-77
2020/12/11 12:52:28;;;;;;;7.07;5.22;;;5.10;80.40;;;;;;4989372;28;20069;-77
2020/12/11 12:54:54;;;;;;;7.03;5.15;;;5.10;80.30;;;;;;4978064;28;20084;-76
2020/12/11 13:00:08;;;;;;;7.30;5.22;;;5.10;80.30;;;;;;4990160;28;20035;-76
2020/12/11 13:05:09;;;;;;;6.78;4.80;;;5.20;80.30;;;;;;4995385;28;20058;-76
2020/12/11 13:07:38;;;;;;;7.07;5.05;;;5.20;80.30;;;;;;4974598;28;20069;-76
2020/12/11 13:10:06;;;;;;;6.90;4.90;;;5.20;80.40;;;;;;4975687;28;20059;-82
2020/12/11 13:12:32;;;;;;;6.93;5.22;;;5.20;80.30;;;;;;5002042;28;20034;-76
2020/12/11 13:14:57;;;;;;;7.68;5.15;;;5.20;80.40;;;;;;4994945;28;20026;-77
2020/12/11 13:17:23;;;;;;;8.13;5.63;;;5.20;80.30;;;;;;4982083;28;20038;-77
2020/12/11 13:19:49;;;;;;;7.45;5.07;;;5.30;80.40;;;;;;4963543;28;20390;-77
2020/12/11 13:27:29;;;;;;;6.90;4.88;;;5.30;80.30;;;;;;4994623;28;20026;-77
2020/12/11 13:29:56;;;;;;;6.65;4.88;;;5.30;80.30;;;;;;4995384;28;20038;-76
2020/12/11 13:32:21;;;;;;;7.45;5.30;;;5.30;80.30;;;;;;4993146;28;20018;-77
2020/12/11 13:34:48;;;;;;;7.00;4.95;;;5.40;80.30;;;;;;4992793;28;20088;-77
2020/12/11 13:37:14;;;;;;;7.47;5.35;;;5.30;80.30;;;;;;4994759;28;20485;-76
2020/12/11 13:39:40;;;;;;;6.95;4.40;;;5.40;80.30;;;;;;4994767;28;20034;-77
2020/12/11 13:42:06;;;;;;;6.30;4.50;;;5.40;80.30;;;;;;4993358;28;20038;-80